Airfield :
LOGIN :

Register | Disclaimer

   EN    FR    IT 

 










Legend :    VFR   Marginal VFR   IFR   Intensive IFR   Very Intensive IFR
Visi :
Ceiling :
>= 8 km
>= 3000ft
5 to 8 km
1000 to 3000 ft
1500m to 5 km
500 to 1000 ft
800 to 1500m
200 to 500 ft
< 800m
< 200 ft
Symbols :   Thunderstorms  Fog  Heavy snow  Heavy precipitations  Wind > 20 kt
SIGMETs :     Misc.  Thunderstorms  Icing  Turbulence  Mountain Waves  Volcanic Ashes






- Airport Elevation : 1906 ft
- IATA code : INN


LOWI - Innsbruck

CURRENT METAR :
  • 080220Z AUTO VRB02KT 9999 NCD 16/15 Q1023

EXPIRED METARs :
  • 080150Z AUTO VRB02KT 9999 NCD 16/15 Q1023
  • 080120Z AUTO VRB01KT 9999 NCD 17/15 Q1022
  • 080050Z AUTO VRB01KT 9999 NCD 17/15 Q1022
  • 080020Z AUTO VRB01KT 9999 NCD 17/15 Q1022
  • 072350Z AUTO VRB01KT 9999 NCD 18/16 Q1022

TAF TAF LOWI
Valid from the 08 at 00:00 until the 09 at 00:00 UTC


072315Z 0800/0824 27003KT CAVOK TX30/0814Z TN15/0804Z
BECMG 0810/0812 08008KT
BECMG 0817/0819 27003KT



MET'MAP, your aeronautical weather chart ! - Copyright ORBIFLY December 2007 - Disclaimer

ORBIFLY MET'MAP TEAM :

Programming & Development : Alexandra Zaïnal
Concept & original design : Baudouin d'Aumeries
Assistance for programming : Marc-Olivier Méhu
Technical & hardware support : Manuel Goepfert

Contact : metmap@orbifly.com




SOURCES & CREDITS :

   NOAA